Thunder radar more information blitzortung!


Radar de pluja more information rain snow radar


Visita la nostra xarxa de llocs de meteo:

Template documentation
and downloads

And another site



No particular awareness of the weather is required.    There are no Weather-warnings

Pagina Historial Weather Underground text

Diari Resum January 1, 2018 Unitats:  Tant    Imperial   Mètric
« Previous Dia
SegĂźent Dia »
Diari Setmana Mensual Anual Personalitzada
  Maxima: Minima: Media:
Temperatura: TemperatureC °F /  -17.8 °C 7.4 °F /  -13.7 °C 11.6 °F /  -11.3 °C
Punt de rosada: DewpointC °F /  -17.8 °C -2.1 °F /  -18.9 °C 0.5 °F /  -17.5 °C
Humitat: Humidity % 39 % 47 %
Wind Speed: WindSpeedKMH mph /  0 km/h - 10 mph /  16.1 km/h
RĂ fegues de vent: WindSpeedGustKMH mph /  0 km/h - -
Vent:- - WSW
Pression baro: PressurehPa in /  0 hPa 1017.8 in /  34462.7 hPa -
Precipitacions: 0.0 in /  0 mm    
Historical Graphs
 
 
Dades de taula per January 1, 2018
Temps Temperatura Punt de rosada Pression baro Vent Wind Speed RĂ fegues de vent Humitat Rainfall Rate (Hourly)
TemperatureC °F /  -17.8 °C DewpointC °F /  -17.8 °C PressurehPa in /  0 hPa Calm     Humidity % HourlyPrecipMM in /  0 mm
00:02 12.4 °F /  -10.9 °C 3.6 °F /  -15.8 °C 1017.8 in /  34462.7 hPa WNW 7.4 mph /  11.9 km/h 7.4 mph /  11.9 km/h 55 % 0.0 in /  0 mm
00:04 12.3 °F /  -10.9 °C 3.5 °F /  -15.8 °C 1017.8 in /  34462.7 hPa West 5.6 mph /  9 km/h 5.6 mph /  9 km/h 55 % 0.0 in /  0 mm
00:05 7.9 °F /  -13.4 °C -1.4 °F /  -18.6 °C 1021.9 in /  34601.5 hPa West 4.8 mph /  7.7 km/h 12.9 mph /  20.8 km/h 52 % 0.0 in /  0 mm
00:07 12.3 °F /  -10.9 °C 3.5 °F /  -15.8 °C 1017.8 in /  34462.7 hPa WSW 3.7 mph /  6 km/h 3.7 mph /  6 km/h 55 % 0.0 in /  0 mm
00:10 12.2 °F /  -11 °C 3.4 °F /  -15.9 °C 1017.8 in /  34462.7 hPa WNW 5.6 mph /  9 km/h 5.6 mph /  9 km/h 55 % 0.0 in /  0 mm
00:13 12.2 °F /  -11 °C 3.4 °F /  -15.9 °C 1017.8 in /  34462.7 hPa SSW 7.4 mph /  11.9 km/h 7.4 mph /  11.9 km/h 55 % 0.0 in /  0 mm
00:15 7.9 °F /  -13.4 °C -1.4 °F /  -18.6 °C 1021.9 in /  34601.5 hPa WSW 9.7 mph /  15.6 km/h 17.7 mph /  28.5 km/h 52 % 0.0 in /  0 mm
00:18 12.1 °F /  -11.1 °C 3.3 °F /  -15.9 °C 1017.8 in /  34462.7 hPa WSW 7.4 mph /  11.9 km/h 7.4 mph /  11.9 km/h 55 % 0.0 in /  0 mm
00:21 12.0 °F /  -11.1 °C 3.2 °F /  -16 °C 1017.8 in /  34462.7 hPa WSW 9.7 mph /  15.6 km/h 9.7 mph /  15.6 km/h 55 % 0.0 in /  0 mm
00:24 12.0 °F /  -11.1 °C 3.2 °F /  -16 °C 1017.8 in /  34462.7 hPa WSW 10.0 mph /  16.1 km/h 10.0 mph /  16.1 km/h 55 % 0.0 in /  0 mm
00:25 8.0 °F /  -13.3 °C -1.6 °F /  -18.7 °C 1022.9 in /  34635.4 hPa West 12.9 mph /  20.8 km/h 19.3 mph /  31.1 km/h 51 % 0.0 in /  0 mm
00:35 8.0 °F /  -13.3 °C -1.6 °F /  -18.7 °C 1022.9 in /  34635.4 hPa West 11.3 mph /  18.2 km/h 17.7 mph /  28.5 km/h 51 % 0.0 in /  0 mm
00:45 8.0 °F /  -13.3 °C -1.6 °F /  -18.7 °C 1022.9 in /  34635.4 hPa West 11.3 mph /  18.2 km/h 16.1 mph /  25.9 km/h 51 % 0.0 in /  0 mm
00:55 7.9 °F /  -13.4 °C -1.6 °F /  -18.7 °C 1022.9 in /  34635.4 hPa WSW 12.9 mph /  20.8 km/h 14.5 mph /  23.3 km/h 51 % 0.0 in /  0 mm
01:05 7.9 °F /  -13.4 °C -1.6 °F /  -18.7 °C 1023.9 in /  34669.3 hPa WSW 11.3 mph /  18.2 km/h 12.9 mph /  20.8 km/h 51 % 0.0 in /  0 mm
01:15 7.8 °F /  -13.4 °C -1.7 °F /  -18.7 °C 1023.9 in /  34669.3 hPa WSW 9.7 mph /  15.6 km/h 17.7 mph /  28.5 km/h 51 % 0.0 in /  0 mm
01:25 7.7 °F /  -13.5 °C -1.8 °F /  -18.8 °C 1023.9 in /  34669.3 hPa WSW 9.7 mph /  15.6 km/h 16.1 mph /  25.9 km/h 51 % 0.0 in /  0 mm
01:35 7.7 °F /  -13.5 °C -1.8 °F /  -18.8 °C 1023.9 in /  34669.3 hPa WSW 8.0 mph /  12.9 km/h 16.1 mph /  25.9 km/h 51 % 0.0 in /  0 mm
01:45 7.6 °F /  -13.6 °C -1.9 °F /  -18.8 °C 1023.9 in /  34669.3 hPa WSW 8.0 mph /  12.9 km/h 12.9 mph /  20.8 km/h 51 % 0.0 in /  0 mm
01:55 7.6 °F /  -13.6 °C -1.9 °F /  -18.8 °C 1023.9 in /  34669.3 hPa West 4.8 mph /  7.7 km/h 14.5 mph /  23.3 km/h 51 % 0.0 in /  0 mm
02:05 7.6 °F /  -13.6 °C -1.9 °F /  -18.8 °C 1023.9 in /  34669.3 hPa West 8.0 mph /  12.9 km/h 12.9 mph /  20.8 km/h 51 % 0.0 in /  0 mm
02:15 7.6 °F /  -13.6 °C -1.9 °F /  -18.8 °C 1023.9 in /  34669.3 hPa WSW 9.7 mph /  15.6 km/h 12.9 mph /  20.8 km/h 51 % 0.0 in /  0 mm
02:25 7.6 °F /  -13.6 °C -1.9 °F /  -18.8 °C 1023.9 in /  34669.3 hPa WSW 4.8 mph /  7.7 km/h 9.7 mph /  15.6 km/h 51 % 0.0 in /  0 mm
02:35 7.5 °F /  -13.6 °C -2.0 °F /  -18.9 °C 1023.9 in /  34669.3 hPa SW 4.8 mph /  7.7 km/h 9.7 mph /  15.6 km/h 51 % 0.0 in /  0 mm
02:45 7.5 °F /  -13.6 °C -2.0 °F /  -18.9 °C 1023.9 in /  34669.3 hPa SW 4.8 mph /  7.7 km/h 4.8 mph /  7.7 km/h 51 % 0.0 in /  0 mm
02:55 7.4 °F /  -13.7 °C -2.1 °F /  -18.9 °C 1026.0 in /  34740.4 hPa SSW 4.8 mph /  7.7 km/h 12.9 mph /  20.8 km/h 51 % 0.0 in /  0 mm
03:05 7.5 °F /  -13.6 °C -2.0 °F /  -18.9 °C 1026.0 in /  34740.4 hPa WSW 4.8 mph /  7.7 km/h 4.8 mph /  7.7 km/h 51 % 0.0 in /  0 mm
03:15 7.7 °F /  -13.5 °C -1.8 °F /  -18.8 °C 1026.0 in /  34740.4 hPa WSW 8.0 mph /  12.9 km/h 9.7 mph /  15.6 km/h 51 % 0.0 in /  0 mm
03:25 8.0 °F /  -13.3 °C -1.6 °F /  -18.7 °C 1026.0 in /  34740.4 hPa West 8.0 mph /  12.9 km/h 12.9 mph /  20.8 km/h 51 % 0.0 in /  0 mm
03:35 8.3 °F /  -13.2 °C -1.6 °F /  -18.7 °C 1026.0 in /  34740.4 hPa West 14.5 mph /  23.3 km/h 20.9 mph /  33.6 km/h 50 % 0.0 in /  0 mm
03:45 8.6 °F /  -13 °C -1.3 °F /  -18.5 °C 1026.0 in /  34740.4 hPa West 9.7 mph /  15.6 km/h 9.7 mph /  15.6 km/h 50 % 0.0 in /  0 mm
03:55 8.9 °F /  -12.8 °C -1.0 °F /  -18.3 °C 1026.0 in /  34740.4 hPa West 11.3 mph /  18.2 km/h 17.7 mph /  28.5 km/h 50 % 0.0 in /  0 mm
04:05 9.1 °F /  -12.7 °C -1.1 °F /  -18.4 °C 1026.0 in /  34740.4 hPa WSW 4.8 mph /  7.7 km/h 20.9 mph /  33.6 km/h 49 % 0.0 in /  0 mm
04:15 9.3 °F /  -12.6 °C -0.9 °F /  -18.3 °C 1026.0 in /  34740.4 hPa West 9.7 mph /  15.6 km/h 12.9 mph /  20.8 km/h 49 % 0.0 in /  0 mm
04:25 9.6 °F /  -12.4 °C -0.6 °F /  -18.1 °C 1024.9 in /  34703.1 hPa West 8.0 mph /  12.9 km/h 20.9 mph /  33.6 km/h 49 % 0.0 in /  0 mm
04:35 9.7 °F /  -12.4 °C -0.8 °F /  -18.2 °C 1027.0 in /  34774.2 hPa WSW 12.9 mph /  20.8 km/h 16.1 mph /  25.9 km/h 48 % 0.0 in /  0 mm
04:45 10.0 °F /  -12.2 °C -0.5 °F /  -18.1 °C 1027.0 in /  34774.2 hPa WSW 11.3 mph /  18.2 km/h 12.9 mph /  20.8 km/h 48 % 0.0 in /  0 mm
04:55 10.0 °F /  -12.2 °C -0.5 °F /  -18.1 °C 1027.0 in /  34774.2 hPa West 9.7 mph /  15.6 km/h 30.6 mph /  49.2 km/h 48 % 0.0 in /  0 mm
05:05 10.2 °F /  -12.1 °C -0.6 °F /  -18.1 °C 1027.0 in /  34774.2 hPa West 12.9 mph /  20.8 km/h 20.9 mph /  33.6 km/h 47 % 0.0 in /  0 mm
11:09 10.5 °F /  -11.9 °C -0.3 °F /  -17.9 °C 1027.0 in /  34774.2 hPa WSW 20.4 mph /  32.8 km/h 20.4 mph /  32.8 km/h 47 % 0.0 in /  0 mm
11:10 10.5 °F /  -11.9 °C -0.3 °F /  -17.9 °C 1027.0 in /  34774.2 hPa WSW 14.8 mph /  23.8 km/h 14.8 mph /  23.8 km/h 47 % 0.0 in /  0 mm
11:15 10.6 °F /  -11.9 °C -0.3 °F /  -17.9 °C 1027.0 in /  34774.2 hPa SSW 14.8 mph /  23.8 km/h 14.8 mph /  23.8 km/h 47 % 0.0 in /  0 mm
11:16 10.7 °F /  -11.8 °C -0.2 °F /  -17.9 °C 1027.0 in /  34774.2 hPa West 14.8 mph /  23.8 km/h 14.8 mph /  23.8 km/h 47 % 0.0 in /  0 mm
11:21 10.8 °F /  -11.8 °C -0.1 °F /  -17.8 °C 1027.0 in /  34774.2 hPa West 13.7 mph /  22 km/h 13.7 mph /  22 km/h 47 % 0.0 in /  0 mm
11:23 10.8 °F /  -11.8 °C -0.4 °F /  -18 °C 1027.0 in /  34774.2 hPa WSW 16.7 mph /  26.9 km/h 16.7 mph /  26.9 km/h 46 % 0.0 in /  0 mm
11:28 10.9 °F /  -11.7 °C -0.3 °F /  -17.9 °C 1027.0 in /  34774.2 hPa WSW 9.3 mph /  15 km/h 9.3 mph /  15 km/h 46 % 0.0 in /  0 mm
11:33 10.9 °F /  -11.7 °C -0.3 °F /  -17.9 °C 1027.0 in /  34774.2 hPa WSW 28.3 mph /  45.5 km/h 28.3 mph /  45.5 km/h 46 % 0.0 in /  0 mm
11:37 10.9 °F /  -11.7 °C -0.3 °F /  -17.9 °C 1026.0 in /  34740.4 hPa West 12.6 mph /  20.3 km/h 12.6 mph /  20.3 km/h 46 % 0.0 in /  0 mm
11:40 11.0 °F /  -11.7 °C -0.2 °F /  -17.9 °C 1026.0 in /  34740.4 hPa WSW 9.3 mph /  15 km/h 9.3 mph /  15 km/h 46 % 0.0 in /  0 mm
11:45 11.3 °F /  -11.5 °C 0.1 °F /  -17.7 °C 1026.0 in /  34740.4 hPa West 9.3 mph /  15 km/h 9.3 mph /  15 km/h 46 % 0.0 in /  0 mm
11:47 11.4 °F /  -11.4 °C 0.2 °F /  -17.7 °C 1026.0 in /  34740.4 hPa South 7.4 mph /  11.9 km/h 7.4 mph /  11.9 km/h 46 % 0.0 in /  0 mm
11:50 11.4 °F /  -11.4 °C 0.2 °F /  -17.7 °C 1026.0 in /  34740.4 hPa WSW 16.7 mph /  26.9 km/h 16.7 mph /  26.9 km/h 46 % 0.0 in /  0 mm
11:56 11.5 °F /  -11.4 °C 0.3 °F /  -17.6 °C 1026.0 in /  34740.4 hPa WSW 7.4 mph /  11.9 km/h 7.4 mph /  11.9 km/h 46 % 0.0 in /  0 mm
12:00 11.7 °F /  -11.3 °C 0.4 °F /  -17.6 °C 1026.0 in /  34740.4 hPa WSW 9.3 mph /  15 km/h 9.3 mph /  15 km/h 46 % 0.0 in /  0 mm
12:01 11.7 °F /  -11.3 °C 0.4 °F /  -17.6 °C 1026.0 in /  34740.4 hPa WNW 9.3 mph /  15 km/h 9.3 mph /  15 km/h 46 % 0.0 in /  0 mm
12:06 11.7 °F /  -11.3 °C 0.4 °F /  -17.6 °C 1026.0 in /  34740.4 hPa West 16.4 mph /  26.4 km/h 16.4 mph /  26.4 km/h 46 % 0.0 in /  0 mm
12:09 11.6 °F /  -11.3 °C 0.1 °F /  -17.7 °C 1026.0 in /  34740.4 hPa WSW 11.1 mph /  17.9 km/h 11.1 mph /  17.9 km/h 45 % 0.0 in /  0 mm
12:14 11.8 °F /  -11.2 °C 0.2 °F /  -17.7 °C 1026.0 in /  34740.4 hPa WSW 10.0 mph /  16.1 km/h 10.0 mph /  16.1 km/h 45 % 0.0 in /  0 mm
12:15 11.9 °F /  -11.2 °C 0.6 °F /  -17.4 °C 1026.0 in /  34740.4 hPa West 9.5 mph /  15.3 km/h 9.5 mph /  15.3 km/h 46 % 0.0 in /  0 mm
12:20 12.0 °F /  -11.1 °C 0.4 °F /  -17.6 °C 1026.0 in /  34740.4 hPa NNW 9.3 mph /  15 km/h 9.3 mph /  15 km/h 45 % 0.0 in /  0 mm
12:21 12.0 °F /  -11.1 °C 0.4 °F /  -17.6 °C 1026.0 in /  34740.4 hPa SE 9.3 mph /  15 km/h 9.3 mph /  15 km/h 45 % 0.0 in /  0 mm
12:26 12.2 °F /  -11 °C 0.6 °F /  -17.4 °C 1026.0 in /  34740.4 hPa WSW 7.4 mph /  11.9 km/h 7.4 mph /  11.9 km/h 45 % 0.0 in /  0 mm
12:28 12.2 °F /  -11 °C 0.6 °F /  -17.4 °C 1026.0 in /  34740.4 hPa WNW 9.3 mph /  15 km/h 9.3 mph /  15 km/h 45 % 0.0 in /  0 mm
12:33 12.2 °F /  -11 °C 0.6 °F /  -17.4 °C 1026.0 in /  34740.4 hPa West 9.3 mph /  15 km/h 9.3 mph /  15 km/h 45 % 0.0 in /  0 mm
12:34 12.2 °F /  -11 °C 0.6 °F /  -17.4 °C 1026.0 in /  34740.4 hPa SSW 11.1 mph /  17.9 km/h 11.1 mph /  17.9 km/h 45 % 0.0 in /  0 mm
12:39 12.4 °F /  -10.9 °C 0.8 °F /  -17.3 °C 1024.9 in /  34703.1 hPa NW 5.6 mph /  9 km/h 5.6 mph /  9 km/h 45 % 0.0 in /  0 mm
12:40 12.5 °F /  -10.8 °C 0.9 °F /  -17.3 °C 1024.9 in /  34703.1 hPa South 5.6 mph /  9 km/h 5.6 mph /  9 km/h 45 % 0.0 in /  0 mm
12:45 12.7 °F /  -10.7 °C 1.1 °F /  -17.2 °C 1024.9 in /  34703.1 hPa WSW 9.3 mph /  15 km/h 9.3 mph /  15 km/h 45 % 0.0 in /  0 mm
12:46 12.7 °F /  -10.7 °C 1.1 °F /  -17.2 °C 1024.9 in /  34703.1 hPa WSW 9.5 mph /  15.3 km/h 9.5 mph /  15.3 km/h 45 % 0.0 in /  0 mm
12:51 12.9 °F /  -10.6 °C 1.2 °F /  -17.1 °C 1024.9 in /  34703.1 hPa SE 9.3 mph /  15 km/h 9.3 mph /  15 km/h 45 % 0.0 in /  0 mm
12:52 12.9 °F /  -10.6 °C 1.2 °F /  -17.1 °C 1023.9 in /  34669.3 hPa SE 7.4 mph /  11.9 km/h 7.4 mph /  11.9 km/h 45 % 0.0 in /  0 mm
12:57 13.4 °F /  -10.3 °C 1.7 °F /  -16.8 °C 1023.9 in /  34669.3 hPa WSW 9.0 mph /  14.5 km/h 9.0 mph /  14.5 km/h 45 % 0.0 in /  0 mm
12:59 13.3 °F /  -10.4 °C 1.6 °F /  -16.9 °C 1023.9 in /  34669.3 hPa NW 11.1 mph /  17.9 km/h 11.1 mph /  17.9 km/h 45 % 0.0 in /  0 mm
13:04 13.5 °F /  -10.3 °C 1.8 °F /  -16.8 °C 1023.9 in /  34669.3 hPa WSW 7.4 mph /  11.9 km/h 7.4 mph /  11.9 km/h 45 % 0.0 in /  0 mm
13:09 13.4 °F /  -10.3 °C 1.4 °F /  -17 °C 1023.9 in /  34669.3 hPa SW 13.0 mph /  20.9 km/h 13.0 mph /  20.9 km/h 44 % 0.0 in /  0 mm
13:14 13.0 °F /  -10.6 °C 1.0 °F /  -17.2 °C 1023.9 in /  34669.3 hPa WNW 13.0 mph /  20.9 km/h 13.0 mph /  20.9 km/h 44 % 0.0 in /  0 mm
13:15 13.0 °F /  -10.6 °C 1.0 °F /  -17.2 °C 1023.9 in /  34669.3 hPa West 8.0 mph /  12.9 km/h 12.9 mph /  20.8 km/h 44 % 0.0 in /  0 mm
13:20 12.9 °F /  -10.6 °C 0.6 °F /  -17.4 °C 1023.9 in /  34669.3 hPa WNW 6.4 mph /  10.3 km/h 6.4 mph /  10.3 km/h 43 % 0.0 in /  0 mm
13:22 12.9 °F /  -10.6 °C 0.9 °F /  -17.3 °C 1023.9 in /  34669.3 hPa SW 7.4 mph /  11.9 km/h 7.4 mph /  11.9 km/h 44 % 0.0 in /  0 mm
13:24 13.0 °F /  -10.6 °C 1.0 °F /  -17.2 °C 1023.9 in /  34669.3 hPa West 7.4 mph /  11.9 km/h 7.4 mph /  11.9 km/h 44 % 0.0 in /  0 mm
13:27 13.4 °F /  -10.3 °C 1.4 °F /  -17 °C 1023.9 in /  34669.3 hPa SW 4.2 mph /  6.8 km/h 4.2 mph /  6.8 km/h 44 % 0.0 in /  0 mm
13:30 13.7 °F /  -10.2 °C 1.3 °F /  -17.1 °C 1023.9 in /  34669.3 hPa WSW 11.1 mph /  17.9 km/h 11.1 mph /  17.9 km/h 43 % 0.0 in /  0 mm
13:33 13.7 °F /  -10.2 °C 1.3 °F /  -17.1 °C 1023.9 in /  34669.3 hPa WNW 13.0 mph /  20.9 km/h 13.0 mph /  20.9 km/h 43 % 0.0 in /  0 mm
13:36 13.6 °F /  -10.2 °C 0.9 °F /  -17.3 °C 1023.9 in /  34669.3 hPa WSW 9.3 mph /  15 km/h 9.3 mph /  15 km/h 42 % 0.0 in /  0 mm
13:39 13.7 °F /  -10.2 °C 1.0 °F /  -17.2 °C 1023.9 in /  34669.3 hPa NW 11.1 mph /  17.9 km/h 11.1 mph /  17.9 km/h 42 % 0.0 in /  0 mm
13:44 13.8 °F /  -10.1 °C 1.1 °F /  -17.2 °C 1023.9 in /  34669.3 hPa WNW 11.1 mph /  17.9 km/h 11.1 mph /  17.9 km/h 42 % 0.0 in /  0 mm
13:45 13.8 °F /  -10.1 °C 1.1 °F /  -17.2 °C 1023.9 in /  34669.3 hPa SW 11.1 mph /  17.9 km/h 11.1 mph /  17.9 km/h 42 % 0.0 in /  0 mm
13:49 13.7 °F /  -10.2 °C 0.7 °F /  -17.4 °C 1023.9 in /  34669.3 hPa WSW 9.3 mph /  15 km/h 9.3 mph /  15 km/h 41 % 0.0 in /  0 mm
13:51 13.6 °F /  -10.2 °C 0.6 °F /  -17.4 °C 1023.9 in /  34669.3 hPa SW 11.1 mph /  17.9 km/h 11.1 mph /  17.9 km/h 41 % 0.0 in /  0 mm
13:55 13.7 °F /  -10.2 °C 0.3 °F /  -17.6 °C 1022.9 in /  34635.4 hPa SW 22.2 mph /  35.7 km/h 22.2 mph /  35.7 km/h 40 % 0.0 in /  0 mm
13:57 13.6 °F /  -10.2 °C 0.2 °F /  -17.7 °C 1022.9 in /  34635.4 hPa West 20.4 mph /  32.8 km/h 20.4 mph /  32.8 km/h 40 % 0.0 in /  0 mm
14:02 13.7 °F /  -10.2 °C 0.3 °F /  -17.6 °C 1022.9 in /  34635.4 hPa WSW 16.4 mph /  26.4 km/h 16.4 mph /  26.4 km/h 40 % 0.0 in /  0 mm
14:04 13.7 °F /  -10.2 °C 0.3 °F /  -17.6 °C 1022.9 in /  34635.4 hPa WSW 9.3 mph /  15 km/h 9.3 mph /  15 km/h 40 % 0.0 in /  0 mm
14:08 13.6 °F /  -10.2 °C 0.2 °F /  -17.7 °C 1022.9 in /  34635.4 hPa SSE 9.3 mph /  15 km/h 9.3 mph /  15 km/h 40 % 0.0 in /  0 mm
14:13 13.5 °F /  -10.3 °C 0.2 °F /  -17.7 °C 1022.9 in /  34635.4 hPa SW 13.0 mph /  20.9 km/h 13.0 mph /  20.9 km/h 40 % 0.0 in /  0 mm
14:18 13.5 °F /  -10.3 °C 0.2 °F /  -17.7 °C 1022.9 in /  34635.4 hPa SW 13.0 mph /  20.9 km/h 13.0 mph /  20.9 km/h 40 % 0.0 in /  0 mm
14:21 13.6 °F /  -10.2 °C 0.2 °F /  -17.7 °C 1022.9 in /  34635.4 hPa WSW 13.0 mph /  20.9 km/h 13.0 mph /  20.9 km/h 40 % 0.0 in /  0 mm
14:24 13.7 °F /  -10.2 °C 0.3 °F /  -17.6 °C 1021.9 in /  34601.5 hPa SW 14.8 mph /  23.8 km/h 14.8 mph /  23.8 km/h 40 % 0.0 in /  0 mm
14:28 13.7 °F /  -10.2 °C 0.3 °F /  -17.6 °C 1021.9 in /  34601.5 hPa SSW 13.0 mph /  20.9 km/h 13.0 mph /  20.9 km/h 40 % 0.0 in /  0 mm
14:29 13.7 °F /  -10.2 °C 0.3 °F /  -17.6 °C 1021.9 in /  34601.5 hPa West 15.6 mph /  25.1 km/h 15.6 mph /  25.1 km/h 40 % 0.0 in /  0 mm
14:33 13.6 °F /  -10.2 °C 0.2 °F /  -17.7 °C 1021.9 in /  34601.5 hPa WSW 9.3 mph /  15 km/h 9.3 mph /  15 km/h 40 % 0.0 in /  0 mm
14:35 13.6 °F /  -10.2 °C 0.2 °F /  -17.7 °C 1021.9 in /  34601.5 hPa South 13.0 mph /  20.9 km/h 13.0 mph /  20.9 km/h 40 % 0.0 in /  0 mm
14:40 13.6 °F /  -10.2 °C 0.2 °F /  -17.7 °C 1021.9 in /  34601.5 hPa WSW 13.0 mph /  20.9 km/h 13.0 mph /  20.9 km/h 40 % 0.0 in /  0 mm
14:42 13.6 °F /  -10.2 °C 0.6 °F /  -17.4 °C 1021.9 in /  34601.5 hPa WSW 18.3 mph /  29.5 km/h 18.3 mph /  29.5 km/h 41 % 0.0 in /  0 mm
14:44 13.6 °F /  -10.2 °C 0.2 °F /  -17.7 °C 1021.9 in /  34601.5 hPa West 13.0 mph /  20.9 km/h 13.0 mph /  20.9 km/h 40 % 0.0 in /  0 mm
14:47 13.5 °F /  -10.3 °C 0.2 °F /  -17.7 °C 1021.9 in /  34601.5 hPa West 13.0 mph /  20.9 km/h 13.0 mph /  20.9 km/h 40 % 0.0 in /  0 mm
14:52 13.4 °F /  -10.3 °C -0.3 °F /  -17.9 °C 1021.9 in /  34601.5 hPa WSW 24.1 mph /  38.8 km/h 24.1 mph /  38.8 km/h 39 % 0.0 in /  0 mm
14:53 13.4 °F /  -10.3 °C 0.1 °F /  -17.7 °C 1021.9 in /  34601.5 hPa WSW 18.5 mph /  29.8 km/h 18.5 mph /  29.8 km/h 40 % 0.0 in /  0 mm
14:55 13.5 °F /  -10.3 °C 0.2 °F /  -17.7 °C 1021.9 in /  34601.5 hPa WSW 13.0 mph /  20.9 km/h 13.0 mph /  20.9 km/h 40 % 0.0 in /  0 mm
14:59 13.5 °F /  -10.3 °C 0.2 °F /  -17.7 °C 1021.9 in /  34601.5 hPa WNW 17.2 mph /  27.7 km/h 17.2 mph /  27.7 km/h 40 % 0.0 in /  0 mm
15:01 13.4 °F /  -10.3 °C -0.3 °F /  -17.9 °C 1021.9 in /  34601.5 hPa WSW 20.4 mph /  32.8 km/h 20.4 mph /  32.8 km/h 39 % 0.0 in /  0 mm
15:05 13.4 °F /  -10.3 °C -0.3 °F /  -17.9 °C 1021.9 in /  34601.5 hPa West 16.7 mph /  26.9 km/h 16.7 mph /  26.9 km/h 39 % 0.0 in /  0 mm
15:10 13.5 °F /  -10.3 °C -0.2 °F /  -17.9 °C 1021.9 in /  34601.5 hPa SW 14.8 mph /  23.8 km/h 14.8 mph /  23.8 km/h 39 % 0.0 in /  0 mm
15:11 13.5 °F /  -10.3 °C -0.2 °F /  -17.9 °C 1021.9 in /  34601.5 hPa WNW 14.8 mph /  23.8 km/h 14.8 mph /  23.8 km/h 39 % 0.0 in /  0 mm
15:16 13.6 °F /  -10.2 °C -0.1 °F /  -17.8 °C 1021.9 in /  34601.5 hPa West 14.8 mph /  23.8 km/h 14.8 mph /  23.8 km/h 39 % 0.0 in /  0 mm
15:19 13.5 °F /  -10.3 °C -0.2 °F /  -17.9 °C 1021.9 in /  34601.5 hPa WSW 20.4 mph /  32.8 km/h 20.4 mph /  32.8 km/h 39 % 0.0 in /  0 mm
15:22 13.4 °F /  -10.3 °C -0.3 °F /  -17.9 °C 1021.9 in /  34601.5 hPa SSE 13.0 mph /  20.9 km/h 13.0 mph /  20.9 km/h 39 % 0.0 in /  0 mm
15:27 13.3 °F /  -10.4 °C -0.1 °F /  -17.8 °C 1021.9 in /  34601.5 hPa WSW 10.3 mph /  16.6 km/h 10.3 mph /  16.6 km/h 40 % 0.0 in /  0 mm
15:28 13.3 °F /  -10.4 °C -0.1 °F /  -17.8 °C 1021.9 in /  34601.5 hPa WSW 10.3 mph /  16.6 km/h 10.3 mph /  16.6 km/h 40 % 0.0 in /  0 mm
15:33 13.4 °F /  -10.3 °C 0.1 °F /  -17.7 °C 1021.9 in /  34601.5 hPa SW 9.3 mph /  15 km/h 9.3 mph /  15 km/h 40 % 0.0 in /  0 mm
15:34 13.4 °F /  -10.3 °C 0.1 °F /  -17.7 °C 1021.9 in /  34601.5 hPa WSW 9.3 mph /  15 km/h 9.3 mph /  15 km/h 40 % 0.0 in /  0 mm
15:36 13.6 °F /  -10.2 °C 0.2 °F /  -17.7 °C 1021.9 in /  34601.5 hPa West 8.7 mph /  14 km/h 8.7 mph /  14 km/h 40 % 0.0 in /  0 mm
15:41 13.5 °F /  -10.3 °C 0.2 °F /  -17.7 °C 1020.9 in /  34567.7 hPa South 13.0 mph /  20.9 km/h 13.0 mph /  20.9 km/h 40 % 0.0 in /  0 mm
15:43 13.5 °F /  -10.3 °C 0.2 °F /  -17.7 °C 1020.9 in /  34567.7 hPa WSW 11.1 mph /  17.9 km/h 11.1 mph /  17.9 km/h 40 % 0.0 in /  0 mm
15:47 13.6 °F /  -10.2 °C 0.2 °F /  -17.7 °C 1020.9 in /  34567.7 hPa West 14.8 mph /  23.8 km/h 14.8 mph /  23.8 km/h 40 % 0.0 in /  0 mm
15:52 13.8 °F /  -10.1 °C 0.4 °F /  -17.6 °C 1021.9 in /  34601.5 hPa SW 16.7 mph /  26.9 km/h 16.7 mph /  26.9 km/h 40 % 0.0 in /  0 mm
15:53 13.7 °F /  -10.2 °C 0.3 °F /  -17.6 °C 1021.9 in /  34601.5 hPa West 16.7 mph /  26.9 km/h 16.7 mph /  26.9 km/h 40 % 0.0 in /  0 mm
15:56 13.5 °F /  -10.3 °C 0.2 °F /  -17.7 °C 1021.9 in /  34601.5 hPa WSW 11.1 mph /  17.9 km/h 11.1 mph /  17.9 km/h 40 % 0.0 in /  0 mm
16:01 13.2 °F /  -10.4 °C -0.1 °F /  -17.8 °C 1021.9 in /  34601.5 hPa WSW 12.6 mph /  20.3 km/h 12.6 mph /  20.3 km/h 40 % 0.0 in /  0 mm
16:02 13.2 °F /  -10.4 °C -0.1 °F /  -17.8 °C 1021.9 in /  34601.5 hPa West 11.1 mph /  17.9 km/h 11.1 mph /  17.9 km/h 40 % 0.0 in /  0 mm
16:03 13.1 °F /  -10.5 °C -0.2 °F /  -17.9 °C 1021.9 in /  34601.5 hPa West 13.0 mph /  20.9 km/h 13.0 mph /  20.9 km/h 40 % 0.0 in /  0 mm
16:07 13.0 °F /  -10.6 °C -0.3 °F /  -17.9 °C 1021.9 in /  34601.5 hPa WSW 11.1 mph /  17.9 km/h 11.1 mph /  17.9 km/h 40 % 0.0 in /  0 mm
16:12 13.0 °F /  -10.6 °C -0.3 °F /  -17.9 °C 1021.9 in /  34601.5 hPa WNW 9.3 mph /  15 km/h 9.3 mph /  15 km/h 40 % 0.0 in /  0 mm
16:13 13.0 °F /  -10.6 °C -0.3 °F /  -17.9 °C 1021.9 in /  34601.5 hPa WNW 9.3 mph /  15 km/h 9.3 mph /  15 km/h 40 % 0.0 in /  0 mm
16:15 12.9 °F /  -10.6 °C -0.4 °F /  -18 °C 1021.9 in /  34601.5 hPa WSW 7.4 mph /  11.9 km/h 7.6 mph /  12.2 km/h 40 % 0.0 in /  0 mm
16:19 12.9 °F /  -10.6 °C -0.4 °F /  -18 °C 1021.9 in /  34601.5 hPa WSW 14.8 mph /  23.8 km/h 14.8 mph /  23.8 km/h 40 % 0.0 in /  0 mm
16:20 12.9 °F /  -10.6 °C -0.4 °F /  -18 °C 1021.9 in /  34601.5 hPa West 9.3 mph /  15 km/h 10.3 mph /  16.6 km/h 40 % 0.0 in /  0 mm
16:21 12.8 °F /  -10.7 °C -0.5 °F /  -18.1 °C 1021.9 in /  34601.5 hPa WNW 9.3 mph /  15 km/h 9.3 mph /  15 km/h 40 % 0.0 in /  0 mm
16:24 12.9 °F /  -10.6 °C -0.4 °F /  -18 °C 1021.9 in /  34601.5 hPa WSW 16.7 mph /  26.9 km/h 16.7 mph /  26.9 km/h 40 % 0.0 in /  0 mm
16:26 12.9 °F /  -10.6 °C -0.4 °F /  -18 °C 1021.9 in /  34601.5 hPa WNW 16.7 mph /  26.9 km/h 16.7 mph /  26.9 km/h 40 % 0.0 in /  0 mm
16:29 12.8 °F /  -10.7 °C -0.5 °F /  -18.1 °C 1021.9 in /  34601.5 hPa SW 18.5 mph /  29.8 km/h 18.5 mph /  29.8 km/h 40 % 0.0 in /  0 mm
16:31 12.8 °F /  -10.7 °C -0.5 °F /  -18.1 °C 1021.9 in /  34601.5 hPa WSW 14.8 mph /  23.8 km/h 14.8 mph /  23.8 km/h 40 % 0.0 in /  0 mm
16:36 12.8 °F /  -10.7 °C -0.5 °F /  -18.1 °C 1021.9 in /  34601.5 hPa WNW 13.0 mph /  20.9 km/h 13.0 mph /  20.9 km/h 40 % 0.0 in /  0 mm
16:37 12.8 °F /  -10.7 °C -0.5 °F /  -18.1 °C 1021.9 in /  34601.5 hPa SW 13.0 mph /  20.9 km/h 13.0 mph /  20.9 km/h 40 % 0.0 in /  0 mm
16:42 12.9 °F /  -10.6 °C -0.4 °F /  -18 °C 1021.9 in /  34601.5 hPa SSW 13.0 mph /  20.9 km/h 13.0 mph /  20.9 km/h 40 % 0.0 in /  0 mm
16:47 12.8 °F /  -10.7 °C -0.2 °F /  -17.9 °C 1021.9 in /  34601.5 hPa WSW 11.4 mph /  18.3 km/h 11.4 mph /  18.3 km/h 41 % 0.0 in /  0 mm
16:48 12.8 °F /  -10.7 °C -0.2 °F /  -17.9 °C 1021.9 in /  34601.5 hPa WNW 11.1 mph /  17.9 km/h 11.1 mph /  17.9 km/h 41 % 0.0 in /  0 mm
16:51 12.8 °F /  -10.7 °C -0.2 °F /  -17.9 °C 1021.9 in /  34601.5 hPa WSW 13.0 mph /  20.9 km/h 13.0 mph /  20.9 km/h 41 % 0.0 in /  0 mm
16:53 12.8 °F /  -10.7 °C -0.2 °F /  -17.9 °C 1021.9 in /  34601.5 hPa WSW 9.5 mph /  15.3 km/h 9.5 mph /  15.3 km/h 41 % 0.0 in /  0 mm
16:58 12.8 °F /  -10.7 °C -0.2 °F /  -17.9 °C 1021.9 in /  34601.5 hPa WSW 13.0 mph /  20.9 km/h 13.0 mph /  20.9 km/h 41 % 0.0 in /  0 mm
17:00 12.7 °F /  -10.7 °C -0.2 °F /  -17.9 °C 1021.9 in /  34601.5 hPa WSW 9.3 mph /  15 km/h 9.3 mph /  15 km/h 41 % 0.0 in /  0 mm
17:05 12.6 °F /  -10.8 °C -0.3 °F /  -17.9 °C 1021.9 in /  34601.5 hPa WSW 9.3 mph /  15 km/h 9.3 mph /  15 km/h 41 % 0.0 in /  0 mm
17:08 12.5 °F /  -10.8 °C -0.4 °F /  -18 °C 1020.9 in /  34567.7 hPa SSW 9.3 mph /  15 km/h 9.3 mph /  15 km/h 41 % 0.0 in /  0 mm
17:10 12.5 °F /  -10.8 °C -0.4 °F /  -18 °C 1020.9 in /  34567.7 hPa WSW 10.0 mph /  16.1 km/h 10.0 mph /  16.1 km/h 41 % 0.0 in /  0 mm
17:11 12.5 °F /  -10.8 °C -0.4 °F /  -18 °C 1020.9 in /  34567.7 hPa SE 10.0 mph /  16.1 km/h 10.0 mph /  16.1 km/h 41 % 0.0 in /  0 mm
17:16 12.4 °F /  -10.9 °C -0.5 °F /  -18.1 °C 1020.9 in /  34567.7 hPa WSW 7.4 mph /  11.9 km/h 7.4 mph /  11.9 km/h 41 % 0.0 in /  0 mm
17:17 12.3 °F /  -10.9 °C -0.6 °F /  -18.1 °C 1020.9 in /  34567.7 hPa WSW 9.3 mph /  15 km/h 9.3 mph /  15 km/h 41 % 0.0 in /  0 mm
17:22 12.2 °F /  -11 °C -0.7 °F /  -18.2 °C 1020.9 in /  34567.7 hPa West 5.6 mph /  9 km/h 5.6 mph /  9 km/h 41 % 0.0 in /  0 mm
17:23 12.2 °F /  -11 °C -0.7 °F /  -18.2 °C 1020.9 in /  34567.7 hPa West 3.7 mph /  6 km/h 4.7 mph /  7.6 km/h 41 % 0.0 in /  0 mm
17:27 12.1 °F /  -11.1 °C -0.8 °F /  -18.2 °C 1020.9 in /  34567.7 hPa SW 6.4 mph /  10.3 km/h 6.4 mph /  10.3 km/h 41 % 0.0 in /  0 mm
17:28 12.1 °F /  -11.1 °C -0.8 °F /  -18.2 °C 1020.9 in /  34567.7 hPa West 8.7 mph /  14 km/h 8.7 mph /  14 km/h 41 % 0.0 in /  0 mm
17:33 12.0 °F /  -11.1 °C -0.9 °F /  -18.3 °C 1020.9 in /  34567.7 hPa SW 4.2 mph /  6.8 km/h 4.2 mph /  6.8 km/h 41 % 0.0 in /  0 mm
17:34 12.0 °F /  -11.1 °C -0.9 °F /  -18.3 °C 1020.9 in /  34567.7 hPa SW 12.6 mph /  20.3 km/h 12.6 mph /  20.3 km/h 41 % 0.0 in /  0 mm
17:38 12.0 °F /  -11.1 °C -0.9 °F /  -18.3 °C 1019.9 in /  34533.8 hPa West 3.7 mph /  6 km/h 3.7 mph /  6 km/h 41 % 0.0 in /  0 mm
17:43 12.0 °F /  -11.1 °C -0.6 °F /  -18.1 °C 1019.9 in /  34533.8 hPa WSW 3.7 mph /  6 km/h 3.7 mph /  6 km/h 42 % 0.0 in /  0 mm
17:44 12.0 °F /  -11.1 °C -0.6 °F /  -18.1 °C 1019.9 in /  34533.8 hPa WSW 3.7 mph /  6 km/h 3.7 mph /  6 km/h 42 % 0.0 in /  0 mm
17:49 11.8 °F /  -11.2 °C -0.7 °F /  -18.2 °C 1019.9 in /  34533.8 hPa SW 1.9 mph /  3.1 km/h 1.9 mph /  3.1 km/h 42 % 0.0 in /  0 mm
17:53 11.8 °F /  -11.2 °C -0.7 °F /  -18.2 °C 1018.8 in /  34496.6 hPa WSW 2.6 mph /  4.2 km/h   42 % 0.0 in /  0 mm
17:57 11.7 °F /  -11.3 °C -0.8 °F /  -18.2 °C 1018.8 in /  34496.6 hPa SW 2.3 mph /  3.7 km/h   42 % 0.0 in /  0 mm
18:02 11.6 °F /  -11.3 °C -0.9 °F /  -18.3 °C 1018.8 in /  34496.6 hPa SW 3.7 mph /  6 km/h 3.7 mph /  6 km/h 42 % 0.0 in /  0 mm
18:03 11.6 °F /  -11.3 °C -0.9 °F /  -18.3 °C 1018.8 in /  34496.6 hPa SW 3.9 mph /  6.3 km/h 3.9 mph /  6.3 km/h 42 % 0.0 in /  0 mm
18:08 11.7 °F /  -11.3 °C -0.8 °F /  -18.2 °C 1019.9 in /  34533.8 hPa SW 5.6 mph /  9 km/h 5.6 mph /  9 km/h 42 % 0.0 in /  0 mm
18:10 11.7 °F /  -11.3 °C -0.8 °F /  -18.2 °C 1019.9 in /  34533.8 hPa SW 3.7 mph /  6 km/h 3.7 mph /  6 km/h 42 % 0.0 in /  0 mm
18:12 11.7 °F /  -11.3 °C -0.8 °F /  -18.2 °C 1019.9 in /  34533.8 hPa West 3.7 mph /  6 km/h 3.7 mph /  6 km/h 42 % 0.0 in /  0 mm
18:15 11.7 °F /  -11.3 °C -0.8 °F /  -18.2 °C 1019.9 in /  34533.8 hPa WSW 3.7 mph /  6 km/h 3.7 mph /  6 km/h 42 % 0.0 in /  0 mm
18:17 11.6 °F /  -11.3 °C -0.9 °F /  -18.3 °C 1019.9 in /  34533.8 hPa West 3.7 mph /  6 km/h 3.7 mph /  6 km/h 42 % 0.0 in /  0 mm
18:19 11.6 °F /  -11.3 °C -0.9 °F /  -18.3 °C 1019.9 in /  34533.8 hPa SW 3.7 mph /  6 km/h 3.7 mph /  6 km/h 42 % 0.0 in /  0 mm
18:23 11.5 °F /  -11.4 °C -1.0 °F /  -18.3 °C 1019.9 in /  34533.8 hPa West 3.7 mph /  6 km/h 3.7 mph /  6 km/h 42 % 0.0 in /  0 mm
18:28 11.5 °F /  -11.4 °C -1.0 °F /  -18.3 °C 1019.9 in /  34533.8 hPa West 3.7 mph /  6 km/h 3.7 mph /  6 km/h 42 % 0.0 in /  0 mm
18:29 11.5 °F /  -11.4 °C -1.0 °F /  -18.3 °C 1019.9 in /  34533.8 hPa West 1.9 mph /  3.1 km/h   42 % 0.0 in /  0 mm
18:33 11.4 °F /  -11.4 °C -0.8 °F /  -18.2 °C 1019.9 in /  34533.8 hPa Calm     43 % 0.0 in /  0 mm
18:35 11.0 °F /  -11.7 °C 2.3 °F /  -16.5 °C 1019.9 in /  34533.8 hPa West 8.0 mph /  12.9 km/h 17.7 mph /  28.5 km/h 55 % 0.0 in /  0 mm
18:36 11.3 °F /  -11.5 °C -0.8 °F /  -18.2 °C 1019.9 in /  34533.8 hPa WNW 3.9 mph /  6.3 km/h 3.9 mph /  6.3 km/h 43 % 0.0 in /  0 mm
18:39 11.3 °F /  -11.5 °C -0.8 °F /  -18.2 °C 1018.8 in /  34496.6 hPa Calm     43 % 0.0 in /  0 mm
18:42 11.3 °F /  -11.5 °C -0.8 °F /  -18.2 °C 1018.8 in /  34496.6 hPa SSE 2.3 mph /  3.7 km/h   43 % 0.0 in /  0 mm
18:45 11.0 °F /  -11.7 °C 2.3 °F /  -16.5 °C 1019.9 in /  34533.8 hPa WSW 9.7 mph /  15.6 km/h 24.1 mph /  38.8 km/h 55 % 0.0 in /  0 mm
18:47 11.3 °F /  -11.5 °C -0.8 °F /  -18.2 °C 1018.8 in /  34496.6 hPa WSW 1.9 mph /  3.1 km/h   43 % 0.0 in /  0 mm
18:52 11.1 °F /  -11.6 °C -1.0 °F /  -18.3 °C 1019.9 in /  34533.8 hPa WSW 1.9 mph /  3.1 km/h   43 % 0.0 in /  0 mm
18:53 11.1 °F /  -11.6 °C -1.0 °F /  -18.3 °C 1019.9 in /  34533.8 hPa Calm     43 % 0.0 in /  0 mm
18:55 11.0 °F /  -11.7 °C 2.3 °F /  -16.5 °C 1019.9 in /  34533.8 hPa WSW 9.7 mph /  15.6 km/h 11.3 mph /  18.2 km/h 55 % 0.0 in /  0 mm
18:58 11.0 °F /  -11.7 °C -1.1 °F /  -18.4 °C 1019.9 in /  34533.8 hPa Calm     43 % 0.0 in /  0 mm
19:00 11.0 °F /  -11.7 °C -1.1 °F /  -18.4 °C 1019.9 in /  34533.8 hPa WSW 5.6 mph /  9 km/h 5.6 mph /  9 km/h 43 % 0.0 in /  0 mm
19:05 11.0 °F /  -11.7 °C -1.1 °F /  -18.4 °C 1019.9 in /  34533.8 hPa North 3.7 mph /  6 km/h 3.7 mph /  6 km/h 43 % 0.0 in /  0 mm
19:06 10.9 °F /  -11.7 °C -1.2 °F /  -18.4 °C 1019.9 in /  34533.8 hPa SW 1.9 mph /  3.1 km/h 1.9 mph /  3.1 km/h 43 % 0.0 in /  0 mm
19:11 11.0 °F /  -11.7 °C -1.1 °F /  -18.4 °C 1019.9 in /  34533.8 hPa WSW 9.3 mph /  15 km/h 9.3 mph /  15 km/h 43 % 0.0 in /  0 mm
19:15 10.8 °F /  -11.8 °C 2.1 °F /  -16.6 °C 1020.9 in /  34567.7 hPa WNW 3.2 mph /  5.1 km/h 12.9 mph /  20.8 km/h 55 % 0.0 in /  0 mm
19:16 11.6 °F /  -11.3 °C -0.3 °F /  -17.9 °C 1019.9 in /  34533.8 hPa NW 3.7 mph /  6 km/h 3.7 mph /  6 km/h 44 % 0.0 in /  0 mm
19:18 11.7 °F /  -11.3 °C -0.2 °F /  -17.9 °C 1019.9 in /  34533.8 hPa WNW 13.0 mph /  20.9 km/h 13.0 mph /  20.9 km/h 44 % 0.0 in /  0 mm
19:19 11.8 °F /  -11.2 °C -0.1 °F /  -17.8 °C 1019.9 in /  34533.8 hPa WSW 11.1 mph /  17.9 km/h 11.1 mph /  17.9 km/h 44 % 0.0 in /  0 mm
19:24 12.1 °F /  -11.1 °C 0.2 °F /  -17.7 °C 1018.8 in /  34496.6 hPa SW 9.3 mph /  15 km/h 9.3 mph /  15 km/h 44 % 0.0 in /  0 mm
19:27 12.2 °F /  -11 °C 0.3 °F /  -17.6 °C 1018.8 in /  34496.6 hPa SW 7.4 mph /  11.9 km/h 7.4 mph /  11.9 km/h 44 % 0.0 in /  0 mm
19:31 12.3 °F /  -10.9 °C 0.4 °F /  -17.6 °C 1018.8 in /  34496.6 hPa WSW 9.3 mph /  15 km/h 9.3 mph /  15 km/h 44 % 0.0 in /  0 mm
19:35 10.4 °F /  -12 °C 2.2 °F /  -16.6 °C 1021.9 in /  34601.5 hPa Calm   6.4 mph /  10.3 km/h 57 % 0.0 in /  0 mm
19:36 12.4 °F /  -10.9 °C 0.4 °F /  -17.6 °C 1018.8 in /  34496.6 hPa WNW 3.7 mph /  6 km/h 3.7 mph /  6 km/h 44 % 0.0 in /  0 mm
19:41 12.3 °F /  -10.9 °C 0.4 °F /  -17.6 °C 1019.9 in /  34533.8 hPa SW 1.9 mph /  3.1 km/h   44 % 0.0 in /  0 mm
19:42 12.2 °F /  -11 °C 0.3 °F /  -17.6 °C 1019.9 in /  34533.8 hPa ENE 3.5 mph /  5.6 km/h 3.5 mph /  5.6 km/h 44 % 0.0 in /  0 mm
19:47 11.9 °F /  -11.2 °C 0.0 °F /  -17.8 °C 1019.9 in /  34533.8 hPa ENE 5.6 mph /  9 km/h 5.6 mph /  9 km/h 44 % 0.0 in /  0 mm
19:48 11.8 °F /  -11.2 °C -0.4 °F /  -18 °C 1019.9 in /  34533.8 hPa ENE 3.7 mph /  6 km/h 3.7 mph /  6 km/h 43 % 0.0 in /  0 mm
19:53 11.5 °F /  -11.4 °C -0.7 °F /  -18.2 °C 1019.9 in /  34533.8 hPa East 3.7 mph /  6 km/h 3.9 mph /  6.3 km/h 43 % 0.0 in /  0 mm
19:55 10.0 °F /  -12.2 °C 2.1 °F /  -16.6 °C 1021.9 in /  34601.5 hPa SSW 1.6 mph /  2.6 km/h 4.8 mph /  7.7 km/h 58 % 0.0 in /  0 mm
19:58 11.4 °F /  -11.4 °C -0.8 °F /  -18.2 °C 1019.9 in /  34533.8 hPa ENE 5.6 mph /  9 km/h 5.6 mph /  9 km/h 43 % 0.0 in /  0 mm
20:03 11.3 °F /  -11.5 °C -0.8 °F /  -18.2 °C 1019.9 in /  34533.8 hPa ENE 3.7 mph /  6 km/h 3.7 mph /  6 km/h 43 % 0.0 in /  0 mm
20:05 10.0 °F /  -12.2 °C 2.1 °F /  -16.6 °C 1021.9 in /  34601.5 hPa SW 3.2 mph /  5.1 km/h 3.2 mph /  5.1 km/h 58 % 0.0 in /  0 mm
20:08 11.3 °F /  -11.5 °C -0.6 °F /  -18.1 °C 1019.9 in /  34533.8 hPa West 5.6 mph /  9 km/h 5.6 mph /  9 km/h 44 % 0.0 in /  0 mm
20:09 11.3 °F /  -11.5 °C -0.6 °F /  -18.1 °C 1019.9 in /  34533.8 hPa NW 3.7 mph /  6 km/h 3.7 mph /  6 km/h 44 % 0.0 in /  0 mm
20:14 11.1 °F /  -11.6 °C -0.7 °F /  -18.2 °C 1019.9 in /  34533.8 hPa WNW 3.7 mph /  6 km/h 3.7 mph /  6 km/h 44 % 0.0 in /  0 mm
20:15 10.0 °F /  -12.2 °C 2.3 °F /  -16.5 °C 1021.9 in /  34601.5 hPa SW 4.8 mph /  7.7 km/h 4.8 mph /  7.7 km/h 59 % 0.0 in /  0 mm
20:19 11.3 °F /  -11.5 °C -0.6 °F /  -18.1 °C 1019.9 in /  34533.8 hPa West 4.2 mph /  6.8 km/h 4.2 mph /  6.8 km/h 44 % 0.0 in /  0 mm
20:21 11.4 °F /  -11.4 °C -0.4 °F /  -18 °C 1019.9 in /  34533.8 hPa WNW 3.7 mph /  6 km/h 3.7 mph /  6 km/h 44 % 0.0 in /  0 mm
20:25 11.6 °F /  -11.3 °C 0.1 °F /  -17.7 °C 1019.9 in /  34533.8 hPa WNW 9.3 mph /  15 km/h 9.3 mph /  15 km/h 45 % 0.0 in /  0 mm
20:26 11.8 °F /  -11.2 °C 0.2 °F /  -17.7 °C 1019.9 in /  34533.8 hPa WSW 9.3 mph /  15 km/h 9.3 mph /  15 km/h 45 % 0.0 in /  0 mm
20:30 12.0 °F /  -11.1 °C 0.4 °F /  -17.6 °C 1019.9 in /  34533.8 hPa WSW 9.3 mph /  15 km/h 9.3 mph /  15 km/h 45 % 0.0 in /  0 mm
20:32 12.0 °F /  -11.1 °C 0.7 °F /  -17.4 °C 1019.9 in /  34533.8 hPa West 7.4 mph /  11.9 km/h 7.4 mph /  11.9 km/h 46 % 0.0 in /  0 mm
20:35 10.1 °F /  -12.2 °C 2.7 °F /  -16.3 °C 1021.9 in /  34601.5 hPa SW 3.2 mph /  5.1 km/h 8.0 mph /  12.9 km/h 60 % 0.0 in /  0 mm
20:37 12.2 °F /  -11 °C 0.9 °F /  -17.3 °C 1019.9 in /  34533.8 hPa SW 9.3 mph /  15 km/h 9.3 mph /  15 km/h 46 % 0.0 in /  0 mm
20:42 12.3 °F /  -10.9 °C 1.0 °F /  -17.2 °C 1019.9 in /  34533.8 hPa North 11.1 mph /  17.9 km/h 11.1 mph /  17.9 km/h 46 % 0.0 in /  0 mm
20:44 12.3 °F /  -10.9 °C 1.0 °F /  -17.2 °C 1019.9 in /  34533.8 hPa WNW 7.4 mph /  11.9 km/h 7.4 mph /  11.9 km/h 46 % 0.0 in /  0 mm
20:45 10.1 °F /  -12.2 °C 2.7 °F /  -16.3 °C 1021.9 in /  34601.5 hPa SW 4.8 mph /  7.7 km/h 8.0 mph /  12.9 km/h 60 % 0.0 in /  0 mm
20:47 12.3 °F /  -10.9 °C 1.0 °F /  -17.2 °C 1019.9 in /  34533.8 hPa WSW 6.4 mph /  10.3 km/h 6.4 mph /  10.3 km/h 46 % 0.0 in /  0 mm
20:50 12.3 °F /  -10.9 °C 1.0 °F /  -17.2 °C 1019.9 in /  34533.8 hPa West 13.0 mph /  20.9 km/h 13.0 mph /  20.9 km/h 46 % 0.0 in /  0 mm
20:52 12.3 °F /  -10.9 °C 1.0 °F /  -17.2 °C 1019.9 in /  34533.8 hPa SW 9.3 mph /  15 km/h 9.3 mph /  15 km/h 46 % 0.0 in /  0 mm
20:55 12.3 °F /  -10.9 °C 1.0 °F /  -17.2 °C 1020.9 in /  34567.7 hPa ESE 16.7 mph /  26.9 km/h 16.7 mph /  26.9 km/h 46 % 0.0 in /  0 mm
21:00 12.4 °F /  -10.9 °C 1.4 °F /  -17 °C 1020.9 in /  34567.7 hPa WSW 11.1 mph /  17.9 km/h 11.1 mph /  17.9 km/h 47 % 0.0 in /  0 mm
21:01 12.3 °F /  -10.9 °C 1.3 °F /  -17.1 °C 1020.9 in /  34567.7 hPa SW 9.3 mph /  15 km/h 9.3 mph /  15 km/h 47 % 0.0 in /  0 mm
21:02 12.3 °F /  -10.9 °C 1.3 °F /  -17.1 °C 1020.9 in /  34567.7 hPa West 5.6 mph /  9 km/h 5.6 mph /  9 km/h 47 % 0.0 in /  0 mm
21:05 9.9 °F /  -12.3 °C 2.7 °F /  -16.3 °C 1021.9 in /  34601.5 hPa SW 4.8 mph /  7.7 km/h 6.4 mph /  10.3 km/h 61 % 0.0 in /  0 mm
21:07 12.2 °F /  -11 °C 1.2 °F /  -17.1 °C 1019.9 in /  34533.8 hPa SW 22.2 mph /  35.7 km/h 22.2 mph /  35.7 km/h 47 % 0.0 in /  0 mm
21:09 12.2 °F /  -11 °C 1.2 °F /  -17.1 °C 1019.9 in /  34533.8 hPa NW 9.3 mph /  15 km/h 9.3 mph /  15 km/h 47 % 0.0 in /  0 mm
21:12 12.1 °F /  -11.1 °C 1.1 °F /  -17.2 °C 1019.9 in /  34533.8 hPa WSW 7.4 mph /  11.9 km/h 7.4 mph /  11.9 km/h 47 % 0.0 in /  0 mm
21:15 9.8 °F /  -12.3 °C 2.6 °F /  -16.3 °C 1021.9 in /  34601.5 hPa SW 4.8 mph /  7.7 km/h 4.8 mph /  7.7 km/h 61 % 0.0 in /  0 mm
21:17 12.1 °F /  -11.1 °C 1.1 °F /  -17.2 °C 1019.9 in /  34533.8 hPa WSW 7.4 mph /  11.9 km/h 7.4 mph /  11.9 km/h 47 % 0.0 in /  0 mm
21:20 12.0 °F /  -11.1 °C 1.0 °F /  -17.2 °C 1019.9 in /  34533.8 hPa ESE 11.1 mph /  17.9 km/h 11.1 mph /  17.9 km/h 47 % 0.0 in /  0 mm
21:25 12.0 °F /  -11.1 °C 1.3 °F /  -17.1 °C 1020.9 in /  34567.7 hPa WSW 13.0 mph /  20.9 km/h 13.0 mph /  20.9 km/h 48 % 0.0 in /  0 mm
21:26 12.0 °F /  -11.1 °C 1.3 °F /  -17.1 °C 1020.9 in /  34567.7 hPa WSW 10.0 mph /  16.1 km/h 10.0 mph /  16.1 km/h 48 % 0.0 in /  0 mm
21:31 12.0 °F /  -11.1 °C 1.3 °F /  -17.1 °C 1020.9 in /  34567.7 hPa WNW 14.8 mph /  23.8 km/h 14.8 mph /  23.8 km/h 48 % 0.0 in /  0 mm
21:34 11.9 °F /  -11.2 °C 1.2 °F /  -17.1 °C 1020.9 in /  34567.7 hPa West 11.1 mph /  17.9 km/h 11.1 mph /  17.9 km/h 48 % 0.0 in /  0 mm
21:35 9.6 °F /  -12.4 °C 2.4 °F /  -16.4 °C 1021.9 in /  34601.5 hPa WSW 4.8 mph /  7.7 km/h 6.4 mph /  10.3 km/h 61 % 0.0 in /  0 mm
21:39 11.9 °F /  -11.2 °C 1.5 °F /  -16.9 °C 1020.9 in /  34567.7 hPa WSW 11.1 mph /  17.9 km/h 11.1 mph /  17.9 km/h 49 % 0.0 in /  0 mm
21:41 11.9 °F /  -11.2 °C 1.5 °F /  -16.9 °C 1020.9 in /  34567.7 hPa WSW 16.7 mph /  26.9 km/h 16.7 mph /  26.9 km/h 49 % 0.0 in /  0 mm
21:44 11.9 °F /  -11.2 °C 1.8 °F /  -16.8 °C 1020.9 in /  34567.7 hPa SW 16.7 mph /  26.9 km/h 16.7 mph /  26.9 km/h 50 % 0.0 in /  0 mm
21:45 9.7 °F /  -12.4 °C 2.6 °F /  -16.3 °C 1021.9 in /  34601.5 hPa WSW 8.0 mph /  12.9 km/h 8.0 mph /  12.9 km/h 61 % 0.0 in /  0 mm
21:49 11.8 °F /  -11.2 °C 1.7 °F /  -16.8 °C 1020.9 in /  34567.7 hPa WNW 11.1 mph /  17.9 km/h 11.1 mph /  17.9 km/h 50 % 0.0 in /  0 mm
21:54 11.8 °F /  -11.2 °C 2.0 °F /  -16.7 °C 1020.9 in /  34567.7 hPa WSW 14.8 mph /  23.8 km/h 14.8 mph /  23.8 km/h 51 % 0.0 in /  0 mm
21:55 9.5 °F /  -12.5 °C 2.3 °F /  -16.5 °C 1021.9 in /  34601.5 hPa WSW 4.8 mph /  7.7 km/h 6.4 mph /  10.3 km/h 61 % 0.0 in /  0 mm
21:59 11.7 °F /  -11.3 °C 1.9 °F /  -16.7 °C 1020.9 in /  34567.7 hPa WNW 13.0 mph /  20.9 km/h 13.0 mph /  20.9 km/h 51 % 0.0 in /  0 mm
22:00 11.7 °F /  -11.3 °C 1.9 °F /  -16.7 °C 1020.9 in /  34567.7 hPa North 13.0 mph /  20.9 km/h 13.0 mph /  20.9 km/h 51 % 0.0 in /  0 mm
22:01 11.7 °F /  -11.3 °C 1.9 °F /  -16.7 °C 1020.9 in /  34567.7 hPa SW 14.8 mph /  23.8 km/h 14.8 mph /  23.8 km/h 51 % 0.0 in /  0 mm
22:05 11.7 °F /  -11.3 °C 1.9 °F /  -16.7 °C 1020.9 in /  34567.7 hPa West 13.0 mph /  20.9 km/h 13.0 mph /  20.9 km/h 51 % 0.0 in /  0 mm
22:08 11.6 °F /  -11.3 °C 2.1 °F /  -16.6 °C 1020.9 in /  34567.7 hPa West 9.7 mph /  15.6 km/h 9.7 mph /  15.6 km/h 52 % 0.0 in /  0 mm
22:11 11.6 °F /  -11.3 °C 2.1 °F /  -16.6 °C 1020.9 in /  34567.7 hPa NW 14.8 mph /  23.8 km/h 14.8 mph /  23.8 km/h 52 % 0.0 in /  0 mm
22:15 9.4 °F /  -12.6 °C 2.3 °F /  -16.5 °C 1021.9 in /  34601.5 hPa WSW 3.2 mph /  5.1 km/h 4.8 mph /  7.7 km/h 61 % 0.0 in /  0 mm
22:16 11.5 °F /  -11.4 °C 2.0 °F /  -16.7 °C 1020.9 in /  34567.7 hPa WNW 16.7 mph /  26.9 km/h 16.7 mph /  26.9 km/h 52 % 0.0 in /  0 mm
22:17 11.5 °F /  -11.4 °C 2.0 °F /  -16.7 °C 1020.9 in /  34567.7 hPa WSW 18.5 mph /  29.8 km/h 18.5 mph /  29.8 km/h 52 % 0.0 in /  0 mm
22:18 11.5 °F /  -11.4 °C 2.0 °F /  -16.7 °C 1020.9 in /  34567.7 hPa West 18.5 mph /  29.8 km/h 18.5 mph /  29.8 km/h 52 % 0.0 in /  0 mm
22:23 11.5 °F /  -11.4 °C 2.2 °F /  -16.6 °C 1021.9 in /  34601.5 hPa West 20.4 mph /  32.8 km/h 20.4 mph /  32.8 km/h 53 % 0.0 in /  0 mm
22:24 11.5 °F /  -11.4 °C 2.2 °F /  -16.6 °C 1021.9 in /  34601.5 hPa WSW 16.9 mph /  27.2 km/h 16.9 mph /  27.2 km/h 53 % 0.0 in /  0 mm
22:25 9.4 °F /  -12.6 °C 2.3 °F /  -16.5 °C 1021.9 in /  34601.5 hPa WSW 9.7 mph /  15.6 km/h 9.7 mph /  15.6 km/h 61 % 0.0 in /  0 mm
22:26 11.4 °F /  -11.4 °C 2.2 °F /  -16.6 °C 1021.9 in /  34601.5 hPa West 11.1 mph /  17.9 km/h 11.1 mph /  17.9 km/h 53 % 0.0 in /  0 mm
22:31 11.4 °F /  -11.4 °C 2.2 °F /  -16.6 °C 1021.9 in /  34601.5 hPa WNW 20.4 mph /  32.8 km/h 20.4 mph /  32.8 km/h 53 % 0.0 in /  0 mm
22:32 11.4 °F /  -11.4 °C 2.2 °F /  -16.6 °C 1021.9 in /  34601.5 hPa WSW 18.5 mph /  29.8 km/h 18.5 mph /  29.8 km/h 53 % 0.0 in /  0 mm
22:35 9.3 °F /  -12.6 °C 1.9 °F /  -16.7 °C 1021.9 in /  34601.5 hPa WSW 4.8 mph /  7.7 km/h 8.0 mph /  12.9 km/h 60 % 0.0 in /  0 mm
22:37 11.3 °F /  -11.5 °C 2.3 °F /  -16.5 °C 1020.9 in /  34567.7 hPa West 18.5 mph /  29.8 km/h 18.5 mph /  29.8 km/h 54 % 0.0 in /  0 mm
22:38 11.3 °F /  -11.5 °C 2.3 °F /  -16.5 °C 1020.9 in /  34567.7 hPa West 13.0 mph /  20.9 km/h 13.0 mph /  20.9 km/h 54 % 0.0 in /  0 mm
22:43 11.2 °F /  -11.6 °C 2.2 °F /  -16.6 °C 1020.9 in /  34567.7 hPa WSW 11.1 mph /  17.9 km/h 11.1 mph /  17.9 km/h 54 % 0.0 in /  0 mm
22:45 9.2 °F /  -12.7 °C 1.8 °F /  -16.8 °C 1021.9 in /  34601.5 hPa WSW 4.8 mph /  7.7 km/h 11.3 mph /  18.2 km/h 60 % 0.0 in /  0 mm
22:48 11.1 °F /  -11.6 °C 2.1 °F /  -16.6 °C 1020.9 in /  34567.7 hPa SW 11.1 mph /  17.9 km/h 11.1 mph /  17.9 km/h 54 % 0.0 in /  0 mm
22:49 11.1 °F /  -11.6 °C 2.1 °F /  -16.6 °C 1020.9 in /  34567.7 hPa WNW 10.8 mph /  17.4 km/h 10.8 mph /  17.4 km/h 54 % 0.0 in /  0 mm
22:54 11.1 °F /  -11.6 °C 2.4 °F /  -16.4 °C 1020.9 in /  34567.7 hPa West 20.4 mph /  32.8 km/h 20.4 mph /  32.8 km/h 55 % 0.0 in /  0 mm
22:55 11.1 °F /  -11.6 °C 2.4 °F /  -16.4 °C 1020.9 in /  34567.7 hPa West 9.7 mph /  15.6 km/h 20.9 mph /  33.6 km/h 55 % 0.0 in /  0 mm
22:59 11.1 °F /  -11.6 °C 2.4 °F /  -16.4 °C 1020.9 in /  34567.7 hPa West 14.8 mph /  23.8 km/h 14.8 mph /  23.8 km/h 55 % 0.0 in /  0 mm
23:00 11.0 °F /  -11.7 °C 2.3 °F /  -16.5 °C 1020.9 in /  34567.7 hPa West 11.1 mph /  17.9 km/h 11.1 mph /  17.9 km/h 55 % 0.0 in /  0 mm
23:05 11.0 °F /  -11.7 °C 2.3 °F /  -16.5 °C 1020.9 in /  34567.7 hPa WSW 14.8 mph /  23.8 km/h 14.8 mph /  23.8 km/h 55 % 0.0 in /  0 mm
23:07 11.0 °F /  -11.7 °C 2.6 °F /  -16.3 °C 1021.9 in /  34601.5 hPa West 16.7 mph /  26.9 km/h 16.7 mph /  26.9 km/h 56 % 0.0 in /  0 mm
23:12 10.9 °F /  -11.7 °C 2.4 °F /  -16.4 °C 1021.9 in /  34601.5 hPa WNW 13.0 mph /  20.9 km/h 13.0 mph /  20.9 km/h 56 % 0.0 in /  0 mm
23:14 10.9 °F /  -11.7 °C 2.4 °F /  -16.4 °C 1021.9 in /  34601.5 hPa SSW 16.7 mph /  26.9 km/h 16.7 mph /  26.9 km/h 56 % 0.0 in /  0 mm
23:15 9.5 °F /  -12.5 °C 1.9 °F /  -16.7 °C 1021.9 in /  34601.5 hPa WSW 9.7 mph /  15.6 km/h 9.7 mph /  15.6 km/h 59 % 0.0 in /  0 mm
23:19 10.9 °F /  -11.7 °C 2.4 °F /  -16.4 °C 1021.9 in /  34601.5 hPa WSW 13.0 mph /  20.9 km/h 13.0 mph /  20.9 km/h 56 % 0.0 in /  0 mm
23:20 10.9 °F /  -11.7 °C 2.4 °F /  -16.4 °C 1021.9 in /  34601.5 hPa West 11.9 mph /  19.2 km/h 11.9 mph /  19.2 km/h 56 % 0.0 in /  0 mm
23:21 10.9 °F /  -11.7 °C 2.4 °F /  -16.4 °C 1021.9 in /  34601.5 hPa SW 12.2 mph /  19.6 km/h 12.2 mph /  19.6 km/h 56 % 0.0 in /  0 mm
23:25 10.8 °F /  -11.8 °C 2.4 °F /  -16.4 °C 1021.9 in /  34601.5 hPa West 16.7 mph /  26.9 km/h 16.7 mph /  26.9 km/h 56 % 0.0 in /  0 mm
23:26 10.8 °F /  -11.8 °C 2.4 °F /  -16.4 °C 1021.9 in /  34601.5 hPa WNW 13.0 mph /  20.9 km/h 13.0 mph /  20.9 km/h 56 % 0.0 in /  0 mm
23:31 10.8 °F /  -11.8 °C 2.4 °F /  -16.4 °C 1021.9 in /  34601.5 hPa WSW 11.1 mph /  17.9 km/h 11.1 mph /  17.9 km/h 56 % 0.0 in /  0 mm
23:33 10.8 °F /  -11.8 °C 2.4 °F /  -16.4 °C 1021.9 in /  34601.5 hPa West 16.7 mph /  26.9 km/h 16.7 mph /  26.9 km/h 56 % 0.0 in /  0 mm
23:35 9.3 °F /  -12.6 °C 1.7 °F /  -16.8 °C 1021.9 in /  34601.5 hPa West 4.8 mph /  7.7 km/h 6.4 mph /  10.3 km/h 59 % 0.0 in /  0 mm
23:36 10.8 °F /  -11.8 °C 2.4 °F /  -16.4 °C 1021.9 in /  34601.5 hPa WSW 16.7 mph /  26.9 km/h 16.7 mph /  26.9 km/h 56 % 0.0 in /  0 mm
23:40 10.8 °F /  -11.8 °C 2.4 °F /  -16.4 °C 1020.9 in /  34567.7 hPa West 11.3 mph /  18.2 km/h 17.7 mph /  28.5 km/h 56 % 0.0 in /  0 mm
23:44 10.8 °F /  -11.8 °C 2.4 °F /  -16.4 °C 1020.9 in /  34567.7 hPa WNW 9.3 mph /  15 km/h 10.8 mph /  17.4 km/h 56 % 0.0 in /  0 mm
23:45 10.8 °F /  -11.8 °C 2.4 °F /  -16.4 °C 1020.9 in /  34567.7 hPa West 15.6 mph /  25.1 km/h 15.6 mph /  25.1 km/h 56 % 0.0 in /  0 mm
23:49 10.8 °F /  -11.8 °C 2.4 °F /  -16.4 °C 1020.9 in /  34567.7 hPa West 16.7 mph /  26.9 km/h 16.7 mph /  26.9 km/h 56 % 0.0 in /  0 mm
23:51 10.8 °F /  -11.8 °C 2.4 °F /  -16.4 °C 1020.9 in /  34567.7 hPa WNW 16.7 mph /  26.9 km/h 16.7 mph /  26.9 km/h 56 % 0.0 in /  0 mm
23:55 8.9 °F /  -12.8 °C 1.3 °F /  -17.1 °C 1021.9 in /  34601.5 hPa West 4.8 mph /  7.7 km/h 6.4 mph /  10.3 km/h 59 % 0.0 in /  0 mm
23:56 10.8 °F /  -11.8 °C 2.4 °F /  -16.4 °C 1020.9 in /  34567.7 hPa WNW 18.5 mph /  29.8 km/h 18.5 mph /  29.8 km/h 56 % 0.0 in /  0 mm
23:57 10.9 °F /  -11.7 °C 2.4 °F /  -16.4 °C 1020.9 in /  34567.7 hPa WSW 16.7 mph /  26.9 km/h 16.7 mph /  26.9 km/h 56 % 0.0 in /  0 mm
Meteo Sesrovires
Elogis d' Weather Underground - 4.25 mb

Guio original per  Jim McMurry - jmcmurry@mwt.net Adaptat per a la plantilla per  Wim van der Kuil - Leuven-Template.eu

Trobareu la nostra informacio del temps tambe a:

Weather Underground

AWEKAS